createdAt,value
2022-08-02T00:02:07.350Z,2.70
2022-08-02T00:05:10.072Z,2.70
2022-08-02T00:08:12.322Z,2.50
2022-08-02T00:11:14.587Z,2.70
2022-08-02T00:14:16.810Z,2.80
2022-08-02T00:17:19.135Z,2.75
2022-08-02T00:20:21.343Z,2.50
2022-08-02T00:23:23.656Z,3.25
2022-08-02T00:26:25.871Z,3.55
2022-08-02T00:29:28.058Z,2.50
2022-08-02T00:32:30.276Z,2.83
2022-08-02T00:35:32.791Z,2.80
2022-08-02T00:38:35.087Z,2.97
2022-08-02T00:41:48.985Z,2.87
2022-08-02T00:44:51.180Z,3.10
2022-08-02T00:47:53.399Z,2.83
2022-08-02T00:50:57.136Z,2.85
2022-08-02T00:53:59.441Z,3.15
2022-08-02T00:57:01.730Z,2.80
2022-08-02T01:00:07.882Z,2.85
2022-08-02T01:03:10.112Z,3.12
2022-08-02T01:06:12.355Z,3.10
2022-08-02T01:09:14.585Z,2.80
2022-08-02T01:12:17.171Z,2.97
2022-08-02T01:15:20.535Z,3.30
2022-08-02T01:18:32.163Z,3.12
2022-08-02T01:22:03.122Z,3.22
2022-08-02T01:25:14.274Z,2.70
2022-08-02T01:31:33.613Z,2.50
2022-08-02T01:35:15.709Z,2.60
2022-08-02T01:38:39.703Z,2.75
2022-08-02T01:41:42.688Z,2.78
2022-08-02T01:44:46.153Z,2.72
2022-08-02T01:47:49.303Z,2.80
2022-08-02T01:50:52.108Z,2.33
2022-08-02T01:53:54.424Z,2.97
2022-08-02T01:56:57.727Z,3.00
2022-08-02T02:00:01.840Z,2.53
2022-08-02T02:03:05.622Z,2.60
2022-08-02T02:06:09.965Z,2.80
2022-08-02T02:09:16.186Z,2.47
2022-08-02T02:12:20.173Z,2.65
2022-08-02T02:15:24.057Z,2.62
2022-08-02T02:18:28.193Z,2.53
2022-08-02T02:21:31.396Z,2.30
2022-08-02T02:24:34.117Z,2.72
2022-08-02T02:27:37.603Z,2.60
2022-08-02T02:30:42.607Z,2.72
2022-08-02T02:33:49.906Z,2.85
2022-08-02T02:36:52.592Z,2.67
2022-08-02T02:39:55.839Z,3.25
2022-08-02T02:43:00.151Z,2.80
2022-08-02T02:46:04.280Z,2.58
2022-08-02T02:49:08.631Z,3.00
2022-08-02T02:52:14.467Z,2.65
2022-08-02T02:55:17.700Z,2.78
2022-08-02T02:58:20.269Z,2.58
2022-08-02T03:01:56.018Z,2.30
2022-08-02T03:04:57.556Z,2.80
2022-08-02T03:08:00.242Z,2.62
2022-08-02T03:11:02.519Z,2.60
2022-08-02T03:14:10.442Z,2.40
2022-08-02T03:17:12.755Z,2.67
2022-08-02T03:20:16.913Z,3.15
2022-08-02T03:23:19.119Z,2.80
2022-08-02T03:26:21.484Z,2.67
2022-08-02T03:29:23.758Z,3.60
2022-08-02T03:32:25.968Z,3.55
2022-08-02T03:35:28.332Z,3.60
2022-08-02T03:38:30.928Z,3.05
2022-08-02T03:41:33.905Z,3.25
2022-08-02T03:44:39.537Z,3.28
2022-08-02T03:47:42.614Z,3.12
2022-08-02T03:50:47.779Z,4.68
2022-08-02T03:53:50.247Z,3.40
2022-08-02T03:56:52.776Z,3.42
2022-08-02T03:59:55.027Z,3.12
2022-08-02T04:02:57.477Z,2.92
2022-08-02T04:06:03.958Z,3.50
2022-08-02T04:09:07.328Z,3.55
2022-08-02T04:12:09.841Z,3.22
2022-08-02T04:15:13.560Z,3.00
2022-08-02T04:18:16.631Z,3.40
2022-08-02T04:21:21.349Z,3.53
2022-08-02T04:24:33.349Z,3.60
2022-08-02T04:27:51.347Z,3.30
2022-08-02T04:31:01.309Z,3.20
2022-08-02T04:34:04.037Z,3.50
2022-08-02T04:37:06.566Z,4.22
2022-08-02T04:40:10.869Z,3.35
2022-08-02T04:43:13.086Z,4.00
2022-08-02T04:46:15.358Z,3.62
2022-08-02T04:49:17.642Z,3.53
2022-08-02T04:52:19.876Z,3.47
2022-08-02T04:55:23.009Z,3.28
2022-08-02T04:58:40.140Z,3.28
2022-08-02T05:01:43.181Z,3.20
2022-08-02T05:04:45.394Z,3.10
2022-08-02T05:07:47.691Z,2.85
2022-08-02T05:10:49.994Z,3.08
2022-08-02T05:13:58.668Z,3.85
2022-08-02T05:17:01.750Z,3.55
2022-08-02T05:20:05.635Z,3.08
2022-08-02T05:23:07.937Z,2.90
2022-08-02T05:26:10.150Z,2.95
2022-08-02T05:29:12.385Z,3.15
2022-08-02T05:32:14.741Z,2.42
2022-08-02T05:35:21.857Z,2.50
2022-08-02T05:38:25.986Z,3.08
2022-08-02T05:41:28.474Z,2.80
2022-08-02T05:44:30.661Z,2.35
2022-08-02T05:47:32.893Z,2.62
2022-08-02T05:50:38.929Z,2.30
2022-08-02T05:53:52.894Z,2.08
2022-08-02T05:57:02.034Z,1.87
2022-08-02T06:00:09.936Z,2.10
2022-08-02T06:03:19.165Z,1.90
2022-08-02T06:06:25.750Z,2.28
2022-08-02T06:09:28.402Z,1.85
2022-08-02T06:12:33.009Z,1.83
2022-08-02T06:15:41.223Z,1.60
2022-08-02T06:18:57.415Z,1.90
2022-08-02T06:22:33.731Z,1.75
2022-08-02T06:25:49.778Z,1.60
2022-08-02T06:28:55.077Z,1.80
2022-08-02T06:31:58.225Z,1.30
2022-08-02T06:35:01.137Z,1.23
2022-08-02T06:38:04.626Z,1.65
2022-08-02T06:41:09.350Z,1.35
2022-08-02T06:44:46.646Z,1.10
2022-08-02T06:47:36.648Z,1.17
2022-08-02T06:50:39.752Z,1.20
2022-08-02T06:53:42.639Z,1.10
2022-08-02T06:56:44.994Z,1.98
2022-08-02T06:59:47.283Z,1.27
2022-08-02T07:02:50.145Z,1.10
2022-08-02T07:05:52.942Z,1.20
2022-08-02T07:09:19.401Z,1.08
2022-08-02T07:12:17.729Z,1.10
2022-08-02T07:15:19.961Z,1.20
2022-08-02T07:18:23.948Z,1.25
2022-08-02T07:21:59.266Z,0.90
2022-08-02T07:24:48.434Z,1.27
2022-08-02T07:27:50.774Z,1.15
2022-08-02T07:30:53.031Z,1.20
2022-08-02T07:33:55.483Z,0.98
2022-08-02T07:36:57.757Z,1.10
2022-08-02T07:40:03.538Z,1.00
2022-08-02T07:43:08.636Z,1.17
2022-08-02T07:46:10.949Z,1.05
2022-08-02T07:49:18.498Z,1.00
2022-08-02T07:52:20.884Z,1.25
2022-08-02T07:55:23.118Z,1.00
2022-08-02T07:58:25.323Z,0.90
2022-08-02T08:01:27.573Z,0.98
2022-08-02T08:04:30.565Z,1.48
2022-08-02T08:07:33.099Z,1.02
2022-08-02T08:10:35.374Z,1.25
2022-08-02T08:13:37.732Z,1.10
2022-08-02T08:16:39.986Z,1.20
2022-08-02T08:19:51.620Z,1.20
2022-08-02T08:22:54.723Z,1.05
2022-08-02T08:25:56.980Z,0.95
2022-08-02T08:28:59.274Z,1.10
2022-08-02T08:32:01.675Z,0.90
2022-08-02T08:35:06.961Z,1.87
2022-08-02T08:38:09.280Z,1.00
2022-08-02T08:41:11.553Z,1.10
2022-08-02T08:44:13.912Z,1.55
2022-08-02T08:47:16.370Z,1.25
2022-08-02T08:50:25.793Z,1.70
2022-08-02T08:53:36.920Z,1.17
2022-08-02T08:56:39.903Z,1.40
2022-08-02T08:59:42.173Z,1.30
2022-08-02T09:02:44.645Z,1.35
2022-08-02T09:05:50.075Z,1.20
2022-08-02T09:08:52.667Z,1.25
2022-08-02T09:11:54.920Z,1.70
2022-08-02T09:14:57.196Z,1.00
2022-08-02T09:17:59.387Z,1.33
2022-08-02T09:21:05.764Z,1.27
2022-08-02T09:24:23.231Z,1.23
2022-08-02T09:27:25.496Z,1.25
2022-08-02T09:30:27.839Z,1.40
2022-08-02T09:33:30.341Z,1.30
2022-08-02T09:36:46.787Z,1.30
2022-08-02T09:39:49.034Z,1.10
2022-08-02T09:42:59.813Z,1.60
2022-08-02T09:46:24.225Z,1.40
2022-08-02T09:49:26.813Z,1.25
2022-08-02T09:52:37.296Z,1.35
2022-08-02T09:55:56.138Z,1.37
2022-08-02T09:58:58.394Z,1.23
2022-08-02T10:02:17.967Z,1.40
2022-08-02T10:05:30.145Z,2.00
2022-08-02T10:08:36.937Z,1.40
2022-08-02T10:11:40.021Z,1.60
2022-08-02T10:14:43.834Z,1.17
2022-08-02T10:17:46.241Z,1.10
2022-08-02T10:20:50.441Z,1.10
2022-08-02T10:23:53.415Z,1.23
2022-08-02T10:26:56.115Z,1.23
2022-08-02T10:30:00.145Z,1.30
2022-08-02T10:33:03.407Z,1.27
2022-08-02T10:36:07.846Z,1.37
2022-08-02T10:39:10.479Z,1.30
2022-08-02T10:42:14.360Z,1.27
2022-08-02T10:45:22.823Z,1.62
2022-08-02T10:48:25.057Z,1.20
2022-08-02T10:51:57.051Z,1.10
2022-08-02T10:55:04.233Z,1.40
2022-08-02T10:58:26.305Z,1.20
2022-08-02T11:01:38.555Z,1.30
2022-08-02T11:04:42.764Z,1.12
2022-08-02T11:07:49.651Z,1.30
2022-08-02T11:10:52.174Z,1.12
2022-08-02T11:14:04.578Z,1.67
2022-08-02T11:17:17.531Z,1.60
2022-08-02T11:20:21.088Z,1.10
2022-08-02T11:23:44.722Z,1.35
2022-08-02T11:26:48.129Z,1.20
2022-08-02T11:29:50.437Z,1.52
2022-08-02T11:32:59.874Z,0.90
2022-08-02T11:36:04.542Z,1.33
2022-08-02T11:39:15.826Z,1.08
2022-08-02T11:42:18.260Z,1.10
2022-08-02T11:45:29.357Z,1.10
2022-08-02T11:48:37.632Z,0.80
2022-08-02T11:51:54.182Z,1.20
2022-08-02T11:54:56.643Z,1.00
2022-08-02T11:58:03.762Z,1.00
2022-08-02T12:01:07.303Z,1.15
2022-08-02T12:04:09.578Z,1.12
2022-08-02T12:07:11.865Z,1.00
2022-08-02T12:10:20.139Z,1.15
2022-08-02T12:13:22.366Z,1.10
2022-08-02T12:16:44.332Z,1.10
2022-08-02T12:19:47.962Z,0.90
2022-08-02T12:22:50.747Z,1.05
2022-08-02T12:26:16.274Z,1.00
2022-08-02T12:29:58.004Z,1.02
2022-08-02T12:33:12.986Z,1.00
2022-08-02T12:36:24.091Z,1.00
2022-08-02T12:39:46.776Z,1.17
2022-08-02T12:42:51.317Z,1.00
2022-08-02T12:45:56.701Z,1.15
2022-08-02T12:49:17.498Z,1.10
2022-08-02T12:52:22.541Z,1.30
2022-08-02T12:56:01.474Z,1.40
2022-08-02T12:58:52.898Z,1.00
2022-08-02T13:02:02.104Z,1.12
2022-08-02T13:05:05.343Z,1.15
2022-08-02T13:08:07.784Z,0.90
2022-08-02T13:11:09.970Z,1.00
2022-08-02T13:14:14.580Z,0.90
2022-08-02T13:17:16.811Z,1.00
2022-08-02T13:20:19.134Z,1.00
2022-08-02T13:23:22.155Z,1.00
2022-08-02T13:26:26.431Z,1.00
2022-08-02T13:29:31.832Z,1.10
2022-08-02T13:32:34.113Z,1.20
2022-08-02T13:35:36.745Z,0.90
2022-08-02T13:38:38.937Z,1.10
2022-08-02T13:41:41.152Z,1.10
2022-08-02T13:44:43.465Z,1.20
2022-08-02T13:48:04.775Z,2.03
2022-08-02T13:51:12.034Z,0.80
2022-08-02T13:54:17.619Z,1.10
2022-08-02T13:57:19.913Z,1.12
2022-08-02T14:00:34.601Z,1.12
2022-08-02T14:04:07.908Z,1.20
2022-08-02T14:07:00.596Z,1.05
2022-08-02T14:10:02.821Z,1.08
2022-08-02T14:13:05.155Z,1.02
2022-08-02T14:16:07.735Z,0.98
2022-08-02T14:19:15.881Z,1.10
2022-08-02T14:22:19.216Z,1.10
2022-08-02T14:25:21.746Z,1.50
2022-08-02T14:28:24.430Z,1.75
2022-08-02T14:31:29.249Z,1.75
2022-08-02T14:34:31.556Z,0.90
2022-08-02T14:37:34.285Z,0.90
2022-08-02T14:40:36.720Z,1.00
2022-08-02T14:43:57.897Z,0.80
2022-08-02T14:47:00.242Z,0.80
2022-08-02T14:50:02.653Z,0.70
2022-08-02T14:53:04.890Z,0.73
2022-08-02T14:56:07.197Z,0.95
2022-08-02T14:59:09.606Z,0.68
2022-08-02T15:02:13.867Z,0.68
2022-08-02T15:05:16.584Z,0.77
2022-08-02T15:08:18.833Z,1.20
2022-08-02T15:11:21.011Z,0.70
2022-08-02T15:14:26.264Z,0.70
2022-08-02T15:17:28.796Z,0.52
2022-08-02T15:20:32.157Z,0.60
2022-08-02T15:23:38.519Z,0.50
2022-08-02T15:26:41.501Z,0.55
2022-08-02T15:29:44.947Z,0.70
2022-08-02T15:32:52.621Z,0.85
2022-08-02T15:35:58.540Z,0.70
2022-08-02T15:39:00.765Z,0.60
2022-08-02T15:42:03.608Z,0.50
2022-08-02T15:45:06.206Z,0.68
2022-08-02T15:48:09.110Z,0.62
2022-08-02T15:51:11.369Z,0.57
2022-08-02T15:54:13.668Z,0.60
2022-08-02T15:57:16.030Z,0.70
2022-08-02T16:00:19.150Z,0.50
2022-08-02T16:03:21.774Z,0.50
2022-08-02T16:06:25.241Z,0.50
2022-08-02T16:09:27.595Z,0.70
2022-08-02T16:12:32.367Z,0.73
2022-08-02T16:15:35.550Z,0.60
2022-08-02T16:18:37.842Z,0.50
2022-08-02T16:21:40.096Z,0.57
2022-08-02T16:24:42.325Z,0.55
2022-08-02T16:27:59.305Z,0.57
2022-08-02T16:31:11.436Z,0.40
2022-08-02T16:34:14.208Z,0.80
2022-08-02T16:37:16.627Z,0.70
2022-08-02T16:40:19.579Z,0.50
2022-08-02T16:43:22.232Z,0.65
2022-08-02T16:46:24.517Z,0.70
2022-08-02T16:50:06.435Z,0.50
2022-08-02T16:52:49.093Z,0.80
2022-08-02T16:55:53.290Z,0.60
2022-08-02T16:58:59.392Z,0.60
2022-08-02T17:02:15.037Z,0.50
2022-08-02T17:05:21.071Z,0.60
2022-08-02T17:08:23.486Z,0.57
2022-08-02T17:11:36.632Z,0.60
2022-08-02T17:14:54.871Z,0.62
2022-08-02T17:17:57.919Z,0.60
2022-08-02T17:21:04.018Z,0.60
2022-08-02T17:24:08.222Z,0.60
2022-08-02T17:27:11.564Z,0.70
2022-08-02T17:30:15.495Z,0.52
2022-08-02T17:33:18.487Z,0.60
2022-08-02T17:36:20.790Z,0.80
2022-08-02T17:39:23.157Z,0.70
2022-08-02T17:42:25.918Z,0.70
2022-08-02T17:46:00.607Z,1.20
2022-08-02T17:49:10.641Z,0.60
2022-08-02T17:52:50.420Z,0.50
2022-08-02T17:55:42.325Z,0.70
2022-08-02T17:58:53.860Z,0.70
2022-08-02T18:01:57.870Z,0.50
2022-08-02T18:05:04.055Z,0.88
2022-08-02T18:08:06.861Z,1.05
2022-08-02T18:11:09.524Z,1.42
2022-08-02T18:14:17.714Z,0.80
2022-08-02T18:17:19.941Z,1.00
2022-08-02T18:20:22.742Z,1.00
2022-08-02T18:23:25.080Z,0.80
2022-08-02T18:26:29.681Z,0.80
2022-08-02T18:29:38.667Z,0.60
2022-08-02T18:33:58.457Z,0.62
2022-08-02T18:36:03.399Z,0.68
2022-08-02T18:39:08.151Z,0.75
2022-08-02T18:42:11.230Z,1.00
2022-08-02T18:45:20.424Z,1.45
2022-08-02T18:48:22.721Z,0.90
2022-08-02T18:51:28.171Z,0.88
2022-08-02T18:54:39.051Z,0.60
2022-08-02T18:58:18.296Z,0.68
2022-08-02T19:01:05.095Z,0.60
2022-08-02T19:04:26.806Z,0.65
2022-08-02T19:07:50.785Z,0.70
2022-08-02T19:10:53.484Z,0.90
2022-08-02T19:13:58.607Z,1.00
2022-08-02T19:17:15.972Z,1.62
2022-08-02T19:20:23.070Z,0.90
2022-08-02T19:23:26.427Z,1.10
2022-08-02T19:26:29.945Z,0.80
2022-08-02T19:29:43.119Z,0.90
2022-08-02T19:32:58.579Z,0.80
2022-08-02T19:36:03.787Z,0.68
2022-08-02T19:39:06.822Z,0.90
2022-08-02T19:42:09.077Z,1.00
2022-08-02T19:45:13.904Z,0.75
2022-08-02T19:48:16.724Z,0.77
2022-08-02T19:51:54.960Z,0.88
2022-08-02T19:54:54.941Z,0.80
2022-08-02T19:57:59.232Z,0.70
2022-08-02T20:01:01.452Z,0.82
2022-08-02T20:04:03.891Z,0.90
2022-08-02T20:07:06.165Z,1.10
2022-08-02T20:10:11.161Z,1.55
2022-08-02T20:13:13.861Z,1.55
2022-08-02T20:16:27.502Z,0.93
2022-08-02T20:19:30.729Z,0.88
2022-08-02T20:22:33.666Z,0.90
2022-08-02T20:25:35.835Z,0.90
2022-08-02T20:28:38.037Z,0.82
2022-08-02T20:31:41.001Z,1.10
2022-08-02T20:34:43.213Z,1.10
2022-08-02T20:37:59.538Z,1.02
2022-08-02T20:41:05.453Z,1.48
2022-08-02T20:44:15.856Z,0.95
2022-08-02T20:47:39.683Z,0.88
2022-08-02T20:50:49.313Z,0.93
2022-08-02T20:53:55.254Z,1.10
2022-08-02T20:56:58.800Z,1.67
2022-08-02T21:00:04.511Z,1.10
2022-08-02T21:03:11.801Z,1.10
2022-08-02T21:06:17.097Z,1.40
2022-08-02T21:09:19.432Z,1.02
2022-08-02T21:12:35.465Z,1.20
2022-08-02T21:15:43.820Z,1.30
2022-08-02T21:18:46.054Z,1.48
2022-08-02T21:21:51.313Z,1.20
2022-08-02T21:24:53.521Z,1.20
2022-08-02T21:27:58.125Z,0.85
2022-08-02T21:31:00.368Z,1.00
2022-08-02T21:34:21.629Z,1.40
2022-08-02T21:37:32.939Z,1.20
2022-08-02T21:40:39.763Z,1.27
2022-08-02T21:47:04.282Z,2.12
2022-08-02T21:50:16.071Z,2.30
2022-08-02T21:53:18.915Z,2.90
2022-08-02T21:56:41.441Z,2.67
2022-08-02T21:59:46.198Z,2.85
2022-08-02T22:02:48.569Z,2.90
2022-08-02T22:05:54.161Z,2.80
2022-08-02T22:08:56.354Z,3.25
2022-08-02T22:11:58.603Z,2.80
2022-08-02T22:15:01.153Z,3.00
2022-08-02T22:18:03.398Z,2.50
2022-08-02T22:21:14.229Z,3.17
2022-08-02T22:24:19.416Z,2.90
2022-08-02T22:28:34.700Z,2.60
2022-08-02T22:30:54.306Z,2.87
2022-08-02T22:34:05.468Z,2.83
2022-08-02T22:38:14.872Z,2.80
2022-08-02T22:40:36.752Z,2.80
2022-08-02T22:43:39.214Z,3.12
2022-08-02T22:46:42.002Z,2.80
2022-08-02T22:49:53.178Z,2.90
2022-08-02T22:53:06.924Z,2.70
2022-08-02T22:56:09.431Z,2.50
2022-08-02T22:59:10.496Z,1.50
2022-08-02T23:02:18.257Z,3.30
2022-08-02T23:05:23.567Z,2.67
2022-08-02T23:08:25.949Z,2.65
2022-08-02T23:11:28.201Z,2.80
2022-08-02T23:14:30.706Z,3.33
2022-08-02T23:17:52.941Z,2.90
2022-08-02T23:20:56.520Z,2.90
2022-08-02T23:23:59.700Z,2.60
2022-08-02T23:27:01.959Z,3.00
2022-08-02T23:30:05.122Z,2.70
2022-08-02T23:33:07.312Z,2.80
2022-08-02T23:36:09.529Z,2.80
2022-08-02T23:39:11.838Z,3.20
2022-08-02T23:42:14.557Z,2.70
2022-08-02T23:45:17.019Z,2.78
2022-08-02T23:48:19.248Z,2.90
2022-08-02T23:51:22.152Z,2.45
2022-08-02T23:54:26.362Z,2.50
2022-08-02T23:57:28.600Z,2.80
